Time;durP1;ratioP1;P1;durP2;ratioP2;P2;SDS_P1;SDS_P2;PMS_P1;PMS_P2;Temp;Humidity;BMP_temperature;BMP_pressure;BME280_temperature;BME280_humidity;BME280_pressure;Samples;Min_cycle;Max_cycle;Signal;HPM_P1;HPM_P2
2021/10/13 00:00:46;;;;;;;;;;;7.20;99.90;;;;;;8395939;28;19916;-67
2021/10/13 00:04:46;;;;;;;;;;;7.10;99.90;;;;;;8394274;28;19909;-67
2021/10/13 00:08:47;;;;;;;;;;;7.00;99.90;;;;;;8394499;28;19908;-67
2021/10/13 00:12:47;;;;;;;;;;;6.80;99.90;;;;;;8394681;28;19909;-67
2021/10/13 00:17:03;;;;;;;;;;;7.00;99.90;;;;;;8394928;28;19991;-66
2021/10/13 00:21:03;;;;;;;;;;;7.00;99.90;;;;;;8393178;28;19921;-66
2021/10/13 00:25:04;;;;;;;;;;;6.60;99.90;;;;;;8394690;28;19931;-67
2021/10/13 00:29:05;;;;;;;;;;;6.30;99.90;;;;;;8394948;28;20378;-66
2021/10/13 00:33:05;;;;;;;;;;;6.30;99.90;;;;;;8394732;28;20009;-66
2021/10/13 00:37:05;;;;;;;;;;;6.20;99.90;;;;;;8393551;28;20401;-66
2021/10/13 00:41:06;;;;;;;;;;;6.30;99.90;;;;;;8392938;28;19915;-66
2021/10/13 00:45:07;;;;;;;;;;;6.30;99.90;;;;;;8393399;28;19915;-67
2021/10/13 00:49:07;;;;;;;;;;;6.10;99.90;;;;;;8394287;28;19914;-67
2021/10/13 00:53:08;;;;;;;;;;;5.90;99.90;;;;;;8393893;28;20208;-67
2021/10/13 00:57:08;;;;;;;;;;;5.80;99.90;;;;;;8393432;28;19912;-66
2021/10/13 01:01:29;;;;;;;;;;;5.80;99.90;;;;;;8393572;28;19909;-66
2021/10/13 01:05:49;;;;;;;;;;;6.00;99.90;;;;;;8393027;28;19915;-67
2021/10/13 01:09:50;;;;;;;;;;;6.00;99.90;;;;;;8367967;28;19913;-67
2021/10/13 01:14:16;;;;;;;;;;;6.00;99.90;;;;;;8392009;28;20392;-67
2021/10/13 01:18:17;;;;;;;;;;;6.30;99.90;;;;;;8391556;28;19973;-66
2021/10/13 01:22:35;;;;;;;;;;;6.50;99.90;;;;;;8393161;28;19982;-67
2021/10/13 01:26:52;;;;;;;;;;;6.60;99.90;;;;;;8392808;28;20010;-66
2021/10/13 01:30:55;;;;;;;;;;;6.70;99.90;;;;;;8392025;28;19909;-66
2021/10/13 01:34:57;;;;;;;;;;;6.30;99.90;;;;;;8392804;28;20405;-66
2021/10/13 01:38:58;;;;;;;;;;;6.00;99.90;;;;;;8392693;28;19935;-66
2021/10/13 01:43:00;;;;;;;;;;;5.80;99.90;;;;;;8392703;28;19970;-67
2021/10/13 01:47:01;;;;;;;;;;;5.70;99.90;;;;;;8392416;28;19952;-66
2021/10/13 01:51:02;;;;;;;;;;;6.00;99.90;;;;;;8392483;28;20282;-66
2021/10/13 01:55:03;;;;;;;;;;;5.90;99.90;;;;;;8392270;28;19912;-67
2021/10/13 01:59:06;;;;;;;;;;;5.60;99.90;;;;;;8392537;28;20390;-66
2021/10/13 02:03:08;;;;;;;;;;;5.60;99.90;;;;;;8392631;28;19908;-67
2021/10/13 02:07:10;;;;;;;;;;;5.60;99.90;;;;;;8391972;28;19909;-67
2021/10/13 02:11:11;;;;;;;;;;;5.80;99.90;;;;;;8395614;28;19908;-67
2021/10/13 02:15:13;;;;;;;;;;;5.80;99.90;;;;;;8399143;28;19955;-66
2021/10/13 02:19:15;;;;;;;;;;;5.70;99.90;;;;;;8399210;28;19913;-66
2021/10/13 02:23:17;;;;;;;;;;;5.90;99.90;;;;;;8399015;28;20370;-66
2021/10/13 02:27:27;;;;;;;;;;;6.00;99.90;;;;;;8398564;28;19908;-66
2021/10/13 02:31:28;;;;;;;;;;;6.00;99.90;;;;;;8398566;28;19910;-67
2021/10/13 02:35:28;;;;;;;;;;;6.00;99.90;;;;;;8393529;28;19913;-66
2021/10/13 02:39:29;;;;;;;;;;;6.20;99.90;;;;;;8388273;28;19913;-66
2021/10/13 02:43:29;;;;;;;;;;;6.30;99.90;;;;;;8398075;28;20317;-66
2021/10/13 02:47:32;;;;;;;;;;;6.30;99.90;;;;;;8393814;28;19916;-66
2021/10/13 02:51:41;;;;;;;;;;;6.30;99.90;;;;;;8364581;28;20011;-66
2021/10/13 02:55:47;;;;;;;;;;;6.30;99.90;;;;;;8364428;28;20383;-66
2021/10/13 02:59:50;;;;;;;;;;;6.30;99.90;;;;;;8364614;28;19916;-67
2021/10/13 03:03:58;;;;;;;;;;;6.20;99.90;;;;;;8367316;28;20293;-66
2021/10/13 03:08:00;;;;;;;;;;;6.40;99.90;;;;;;8395512;28;19958;-66
2021/10/13 03:12:02;;;;;;;;;;;6.30;99.90;;;;;;8397194;28;20003;-66
2021/10/13 03:16:03;;;;;;;;;;;6.20;99.90;;;;;;8397401;28;19909;-67
2021/10/13 03:20:04;;;;;;;;;;;6.10;99.90;;;;;;8397142;28;19960;-67
2021/10/13 03:24:05;;;;;;;;;;;6.20;99.90;;;;;;8395647;28;19917;-66
2021/10/13 03:28:05;;;;;;;;;;;6.30;99.90;;;;;;8387132;28;20164;-66
2021/10/13 03:32:06;;;;;;;;;;;6.10;99.90;;;;;;8375841;28;19939;-66
2021/10/13 03:36:07;;;;;;;;;;;6.00;99.90;;;;;;8377664;28;20019;-66
2021/10/13 03:40:08;;;;;;;;;;;5.80;99.90;;;;;;8377621;28;20298;-66
2021/10/13 03:44:08;;;;;;;;;;;5.80;99.90;;;;;;8379073;28;19991;-66
2021/10/13 03:48:09;;;;;;;;;;;5.50;99.90;;;;;;8375933;28;19909;-66
2021/10/13 03:52:10;;;;;;;;;;;5.30;99.90;;;;;;8373912;28;19979;-66
2021/10/13 03:56:11;;;;;;;;;;;5.30;99.90;;;;;;8372871;28;19912;-66
2021/10/13 04:00:13;;;;;;;;;;;5.20;99.90;;;;;;8376560;28;20275;-67
2021/10/13 04:04:14;;;;;;;;;;;5.20;99.90;;;;;;8378324;28;19970;-66
2021/10/13 04:08:14;;;;;;;;;;;5.20;99.90;;;;;;8371713;28;19912;-66
2021/10/13 04:12:15;;;;;;;;;;;5.20;99.90;;;;;;8362621;28;20232;-66
2021/10/13 04:16:15;;;;;;;;;;;5.10;99.90;;;;;;8370821;28;19921;-66
2021/10/13 04:20:16;;;;;;;;;;;5.30;99.90;;;;;;8362725;28;19924;-66
2021/10/13 04:24:16;;;;;;;;;;;5.20;99.90;;;;;;8360974;28;19917;-67
2021/10/13 04:28:17;;;;;;;;;;;5.30;99.90;;;;;;8361596;28;19909;-66
2021/10/13 04:32:20;;;;;;;;;;;5.00;99.90;;;;;;8361104;28;20280;-66
2021/10/13 04:36:21;;;;;;;;;;;4.90;99.90;;;;;;8359684;28;20279;-66
2021/10/13 04:40:21;;;;;;;;;;;4.90;99.90;;;;;;8363836;28;19916;-66
2021/10/13 04:44:22;;;;;;;;;;;4.60;99.90;;;;;;8361229;28;19912;-67
2021/10/13 04:48:22;;;;;;;;;;;4.60;99.90;;;;;;8368557;28;19914;-66
2021/10/13 04:52:23;;;;;;;;;;;4.60;99.90;;;;;;8367661;28;19919;-66
2021/10/13 04:56:23;;;;;;;;;;;4.50;99.90;;;;;;8374626;28;20006;-66
2021/10/13 05:00:23;;;;;;;;;;;4.50;99.90;;;;;;8377669;28;20011;-66
2021/10/13 05:04:24;;;;;;;;;;;4.40;99.90;;;;;;8381223;28;20387;-69
2021/10/13 05:08:25;;;;;;;;;;;4.40;99.90;;;;;;8391343;28;20003;-68
2021/10/13 05:12:25;;;;;;;;;;;4.40;99.90;;;;;;8374821;28;19909;-67
2021/10/13 05:16:26;;;;;;;;;;;4.50;99.90;;;;;;8382820;28;19925;-67
2021/10/13 05:20:26;;;;;;;;;;;4.50;99.90;;;;;;8374180;28;19928;-68
2021/10/13 05:24:27;;;;;;;;;;;4.50;99.90;;;;;;8382045;28;19917;-67
2021/10/13 05:28:27;;;;;;;;;;;4.30;99.90;;;;;;8384856;28;20301;-65
2021/10/13 05:32:28;;;;;;;;;;;4.70;99.90;;;;;;8376182;28;19913;-69
2021/10/13 05:36:28;;;;;;;;;;;4.70;99.90;;;;;;8371066;28;19917;-66
2021/10/13 05:40:31;;;;;;;;;;;4.80;99.90;;;;;;8379838;28;20276;-67
2021/10/13 05:44:31;;;;;;;;;;;4.90;99.90;;;;;;8376780;28;19919;-66
2021/10/13 05:48:32;;;;;;;;;;;4.80;99.90;;;;;;8382054;28;19912;-66
2021/10/13 05:52:32;;;;;;;;;;;4.70;99.90;;;;;;8372816;28;19913;-66
2021/10/13 05:56:33;;;;;;;;;;;4.60;99.90;;;;;;8372798;28;19962;-69
2021/10/13 06:00:33;;;;;;;;;;;4.40;99.90;;;;;;8398690;28;19924;-67
2021/10/13 06:04:34;;;;;;;;;;;4.70;99.90;;;;;;8386125;28;19919;-66
2021/10/13 06:08:34;;;;;;;;;;;4.80;99.90;;;;;;8373727;28;19912;-67
2021/10/13 06:12:35;;;;;;;;;;;4.60;99.90;;;;;;8383303;28;20268;-67
2021/10/13 06:16:36;;;;;;;;;;;4.70;99.90;;;;;;8367310;28;19921;-66
2021/10/13 06:20:36;;;;;;;;;;;4.60;99.90;;;;;;8388630;28;19928;-67
2021/10/13 06:24:37;;;;;;;;;;;4.60;99.90;;;;;;8367404;28;19913;-66
2021/10/13 06:28:37;;;;;;;;;;;4.70;99.90;;;;;;8356947;28;19916;-66
2021/10/13 06:32:38;;;;;;;;;;;4.70;99.90;;;;;;8357372;28;19909;-67
2021/10/13 06:36:39;;;;;;;;;;;5.00;99.90;;;;;;8358442;28;19913;-65
2021/10/13 06:40:40;;;;;;;;;;;5.00;99.90;;;;;;8358082;28;19917;-65
2021/10/13 06:44:41;;;;;;;;;;;5.20;99.90;;;;;;8358626;28;19932;-65
2021/10/13 06:48:41;;;;;;;;;;;5.30;99.90;;;;;;8368763;28;19916;-65
2021/10/13 06:52:41;;;;;;;;;;;5.40;99.90;;;;;;8373747;28;19916;-66
2021/10/13 06:56:42;;;;;;;;;;;5.60;99.90;;;;;;8372082;28;19920;-66
2021/10/13 07:00:42;;;;;;;;;;;5.60;99.90;;;;;;8378951;28;20004;-65
2021/10/13 07:04:43;;;;;;;;;;;5.80;99.90;;;;;;8378906;28;19944;-66
2021/10/13 07:08:43;;;;;;;;;;;6.00;99.90;;;;;;8370962;28;19909;-66
2021/10/13 07:12:44;;;;;;;;;;;6.40;99.90;;;;;;8381045;28;20032;-65
2021/10/13 07:16:47;;;;;;;;;;;6.40;99.90;;;;;;8382601;28;20003;-66
2021/10/13 07:20:48;;;;;;;;;;;6.50;99.90;;;;;;8362724;28;19963;-67
2021/10/13 07:24:48;;;;;;;;;;;6.70;99.90;;;;;;8382578;28;19916;-66
2021/10/13 07:28:49;;;;;;;;;;;6.80;99.90;;;;;;8394896;28;19923;-66
2021/10/13 07:32:50;;;;;;;;;;;7.10;99.90;;;;;;8382359;28;19913;-65
2021/10/13 07:36:50;;;;;;;;;;;7.20;99.90;;;;;;8382362;28;20357;-66
2021/10/13 07:40:52;;;;;;;;;;;7.40;99.90;;;;;;8382184;28;19923;-66
2021/10/13 07:44:52;;;;;;;;;;;7.60;99.90;;;;;;8374381;28;19920;-64
2021/10/13 07:48:53;;;;;;;;;;;7.80;99.90;;;;;;8380699;28;19927;-64
2021/10/13 07:52:53;;;;;;;;;;;8.00;99.90;;;;;;8375862;28;19963;-66
2021/10/13 07:56:54;;;;;;;;;;;8.10;99.90;;;;;;8377895;28;19912;-65
2021/10/13 08:00:54;;;;;;;;;;;8.00;99.90;;;;;;8382394;28;20299;-65
2021/10/13 08:04:54;;;;;;;;;;;8.10;99.90;;;;;;8378051;28;19909;-66
2021/10/13 08:08:55;;;;;;;;;;;8.20;99.90;;;;;;8391404;28;20378;-65
2021/10/13 08:12:55;;;;;;;;;;;8.20;99.90;;;;;;8394206;28;20404;-65
2021/10/13 08:16:57;;;;;;;;;;;8.30;99.90;;;;;;8392702;28;19985;-66
2021/10/13 08:20:58;;;;;;;;;;;8.60;99.90;;;;;;8390588;28;19920;-66
2021/10/13 08:24:58;;;;;;;;;;;8.80;99.90;;;;;;8378551;28;20488;-66
2021/10/13 08:28:59;;;;;;;;;;;8.90;99.90;;;;;;8394453;28;19912;-66
2021/10/13 08:32:59;;;;;;;;;;;9.10;99.90;;;;;;8392812;28;20019;-65
2021/10/13 08:37:00;;;;;;;;;;;9.10;99.90;;;;;;8387031;28;19916;-65
2021/10/13 08:41:00;;;;;;;;;;;8.80;99.90;;;;;;8375330;28;20293;-66
2021/10/13 08:45:01;;;;;;;;;;;8.50;99.90;;;;;;8360362;28;19912;-66
2021/10/13 08:49:01;;;;;;;;;;;8.30;99.90;;;;;;8384234;28;19908;-65
2021/10/13 08:53:03;;;;;;;;;;;8.20;99.90;;;;;;8382325;28;19917;-65
2021/10/13 08:57:23;;;;;;;;;;;8.00;99.90;;;;;;8360005;28;20046;-65
2021/10/13 09:01:24;;;;;;;;;;;8.00;99.90;;;;;;8366729;28;19920;-66
2021/10/13 09:05:24;;;;;;;;;;;8.20;99.90;;;;;;8359092;28;19999;-66
2021/10/13 09:09:25;;;;;;;;;;;8.60;99.90;;;;;;8362461;28;19916;-66
2021/10/13 09:13:25;;;;;;;;;;;9.10;99.90;;;;;;8363784;28;19962;-66
2021/10/13 09:17:26;;;;;;;;;;;9.20;99.90;;;;;;8370050;28;19920;-67
2021/10/13 09:21:45;;;;;;;;;;;9.60;99.90;;;;;;8375342;28;19979;-66
2021/10/13 09:26:04;;;;;;;;;;;10.30;99.90;;;;;;8391782;28;19912;-68
2021/10/13 09:30:10;;;;;;;;;;;10.90;99.90;;;;;;8359730;28;19913;-67
2021/10/13 09:34:11;;;;;;;;;;;11.30;99.90;;;;;;8364037;28;19913;-67
2021/10/13 09:38:13;;;;;;;;;;;11.60;99.90;;;;;;8368078;28;20024;-67
2021/10/13 09:42:13;;;;;;;;;;;11.40;99.90;;;;;;8365710;28;19913;-65
2021/10/13 09:46:14;;;;;;;;;;;10.80;99.90;;;;;;8366727;28;20334;-67
2021/10/13 09:50:15;;;;;;;;;;;10.60;99.90;;;;;;8356902;28;20390;-68
2021/10/13 09:54:15;;;;;;;;;;;10.10;99.90;;;;;;8354818;28;19915;-67
2021/10/13 09:58:23;;;;;;;;;;;10.10;99.90;;;;;;8358492;28;20070;-68
2021/10/13 10:02:30;;;;;;;;;;;10.20;99.90;;;;;;8358868;28;19909;-67
2021/10/13 10:06:31;;;;;;;;;;;10.50;99.90;;;;;;8357545;28;19909;-68
2021/10/13 10:10:32;;;;;;;;;;;11.20;99.90;;;;;;8357554;28;20371;-68
2021/10/13 10:14:33;;;;;;;;;;;11.90;99.90;;;;;;8358676;28;19916;-68
2021/10/13 10:18:35;;;;;;;;;;;12.40;99.90;;;;;;8370141;28;20023;-68
2021/10/13 10:22:46;;;;;;;;;;;13.40;99.90;;;;;;8371372;28;20346;-68
2021/10/13 10:26:46;;;;;;;;;;;13.70;99.90;;;;;;8357230;28;19970;-68
2021/10/13 10:31:07;;;;;;;;;;;13.00;99.90;;;;;;8363598;28;19916;-68
2021/10/13 10:35:08;;;;;;;;;;;12.70;99.90;;;;;;8388992;28;20019;-68
2021/10/13 10:39:12;;;;;;;;;;;12.40;99.90;;;;;;8375662;28;19923;-68
2021/10/13 10:43:19;;;;;;;;;;;12.10;99.90;;;;;;8364709;28;19909;-68
2021/10/13 10:47:19;;;;;;;;;;;11.90;99.90;;;;;;8372809;28;19916;-68
2021/10/13 10:51:20;;;;;;;;;;;11.70;99.90;;;;;;8398410;28;19908;-68
2021/10/13 10:55:32;;;;;;;;;;;11.60;99.90;;;;;;8396110;28;19962;-68
2021/10/13 10:59:39;;;;;;;;;;;11.40;99.90;;;;;;8397943;28;19966;-67
2021/10/13 11:03:40;;;;;;;;;;;11.50;99.90;;;;;;8381712;28;19920;-68
2021/10/13 11:07:42;;;;;;;;;;;11.50;99.90;;;;;;8371800;28;20371;-67
2021/10/13 11:11:43;;;;;;;;;;;11.30;99.90;;;;;;8370713;28;19912;-67
2021/10/13 11:15:44;;;;;;;;;;;11.30;99.90;;;;;;8362835;28;19972;-67
2021/10/13 11:19:44;;;;;;;;;;;11.30;99.90;;;;;;8363859;28;19912;-67
2021/10/13 11:23:45;;;;;;;;;;;11.40;99.90;;;;;;8362303;28;19987;-67
2021/10/13 11:28:15;;;;;;;;;;;11.70;99.90;;;;;;8362900;28;20380;-68
2021/10/13 11:32:16;;;;;;;;;;;12.60;99.90;;;;;;8349140;28;19948;-68
2021/10/13 11:36:18;;;;;;;;;;;13.50;99.90;;;;;;8363309;28;19920;-68
2021/10/13 11:40:19;;;;;;;;;;;15.20;99.90;;;;;;8361513;28;19928;-68
2021/10/13 11:44:21;;;;;;;;;;;16.90;99.90;;;;;;8360672;28;19996;-67
2021/10/13 11:48:26;;;;;;;;;;;14.10;99.90;;;;;;8373408;28;19916;-67
2021/10/13 11:52:27;;;;;;;;;;;13.40;99.90;;;;;;8378167;28;19912;-67
2021/10/13 11:56:27;;;;;;;;;;;12.40;99.90;;;;;;8360866;28;19999;-68
2021/10/13 12:00:30;;;;;;;;;;;12.30;99.90;;;;;;8362209;28;19917;-67
2021/10/13 12:04:31;;;;;;;;;;;11.60;99.90;;;;;;8362234;28;19916;-67
2021/10/13 12:08:38;;;;;;;;;;;11.70;99.90;;;;;;8361725;28;19959;-68
2021/10/13 12:12:39;;;;;;;;;;;12.00;99.90;;;;;;8372397;28;19986;-69
2021/10/13 12:16:39;;;;;;;;;;;11.80;99.90;;;;;;8389903;28;20400;-68
2021/10/13 12:20:41;;;;;;;;;;;12.00;99.90;;;;;;8369828;28;19959;-67
2021/10/13 12:24:42;;;;;;;;;;;11.70;99.90;;;;;;8361697;28;20295;-67
2021/10/13 12:28:43;;;;;;;;;;;11.30;99.90;;;;;;8378425;28;19973;-68
2021/10/13 12:32:43;;;;;;;;;;;11.10;99.90;;;;;;8394431;28;19909;-68
2021/10/13 12:36:51;;;;;;;;;;;11.00;99.90;;;;;;8375579;28;19939;-67
2021/10/13 12:41:00;;;;;;;;;;;11.10;99.90;;;;;;8380908;28;19920;-67
2021/10/13 12:45:01;;;;;;;;;;;11.50;99.90;;;;;;8373998;28;20379;-67
2021/10/13 12:49:12;;;;;;;;;;;14.60;99.90;;;;;;8359345;28;19948;-68
2021/10/13 12:53:13;;;;;;;;;;;15.70;99.90;;;;;;8362712;28;20322;-67
2021/10/13 12:57:15;;;;;;;;;;;20.50;98.50;;;;;;8377935;28;19954;-67
2021/10/13 13:01:15;;;;;;;;;;;20.10;89.10;;;;;;8386345;28;20452;-67
2021/10/13 13:05:16;;;;;;;;;;;17.40;92.70;;;;;;8376295;28;19920;-68
2021/10/13 13:09:17;;;;;;;;;;;15.40;97.30;;;;;;8374035;28;19921;-66
2021/10/13 13:13:17;;;;;;;;;;;18.30;95.50;;;;;;8359038;28;20011;-67
2021/10/13 13:17:18;;;;;;;;;;;22.90;76.40;;;;;;8382447;28;19920;-68
2021/10/13 13:21:18;;;;;;;;;;;25.90;58.60;;;;;;8390789;28;19979;-69
2021/10/13 13:25:19;;;;;;;;;;;25.70;52.50;;;;;;8368310;28;20005;-69
2021/10/13 13:29:19;;;;;;;;;;;26.20;53.60;;;;;;8359357;28;19913;-68
2021/10/13 13:33:20;;;;;;;;;;;28.30;47.40;;;;;;8378053;28;19912;-68
2021/10/13 13:37:20;;;;;;;;;;;26.20;49.70;;;;;;8385546;28;20287;-68
2021/10/13 13:41:21;;;;;;;;;;;24.90;49.30;;;;;;8388256;28;19951;-69
2021/10/13 13:45:22;;;;;;;;;;;23.10;54.70;;;;;;8391446;28;19908;-68
2021/10/13 13:49:22;;;;;;;;;;;20.40;54.50;;;;;;8392604;28;19955;-68
2021/10/13 13:53:23;;;;;;;;;;;17.50;62.60;;;;;;8400343;28;19943;-67
2021/10/13 13:57:24;;;;;;;;;;;15.00;72.90;;;;;;8425603;28;19957;-68
2021/10/13 14:01:24;;;;;;;;;;;13.60;79.80;;;;;;8426256;28;20267;-67
2021/10/13 14:05:25;;;;;;;;;;;12.80;88.60;;;;;;8425191;28;19931;-68
2021/10/13 14:09:25;;;;;;;;;;;12.30;93.50;;;;;;8425797;28;19920;-68
2021/10/13 14:13:25;;;;;;;;;;;11.90;96.00;;;;;;8424568;28;20277;-67
2021/10/13 14:17:26;;;;;;;;;;;11.70;97.80;;;;;;8420154;28;20338;-67
2021/10/13 14:21:27;;;;;;;;;;;11.20;99.90;;;;;;8392287;28;20333;-67
2021/10/13 14:25:27;;;;;;;;;;;10.70;99.90;;;;;;8379172;28;20051;-67
2021/10/13 14:29:28;;;;;;;;;;;10.40;99.90;;;;;;8358709;28;19909;-67
2021/10/13 14:33:28;;;;;;;;;;;10.30;99.90;;;;;;8358764;28;19909;-68
2021/10/13 14:37:29;;;;;;;;;;;10.30;99.90;;;;;;8357556;28;19913;-68
2021/10/13 14:41:29;;;;;;;;;;;10.50;99.90;;;;;;8358470;28;19920;-68
2021/10/13 14:45:30;;;;;;;;;;;10.50;99.90;;;;;;8358503;28;19917;-67
2021/10/13 14:49:30;;;;;;;;;;;10.70;99.90;;;;;;8357999;28;19909;-67
2021/10/13 14:53:31;;;;;;;;;;;10.40;99.90;;;;;;8358393;28;20003;-67
2021/10/13 14:57:32;;;;;;;;;;;10.40;99.90;;;;;;8357072;28;19916;-68
2021/10/13 15:01:32;;;;;;;;;;;10.40;99.90;;;;;;8358116;28;19908;-67
2021/10/13 15:05:33;;;;;;;;;;;10.40;99.90;;;;;;8356123;28;19947;-68
2021/10/13 15:09:33;;;;;;;;;;;10.40;99.90;;;;;;8357208;28;19916;-68
2021/10/13 15:13:33;;;;;;;;;;;10.50;99.90;;;;;;8357947;28;20552;-68
2021/10/13 15:17:34;;;;;;;;;;;10.60;99.90;;;;;;8362112;28;19927;-68
2021/10/13 15:21:36;;;;;;;;;;;10.80;99.90;;;;;;8396718;28;19917;-68
2021/10/13 15:25:37;;;;;;;;;;;10.80;99.90;;;;;;8396207;28;19915;-67
2021/10/13 15:29:37;;;;;;;;;;;10.70;99.90;;;;;;8396244;28;19912;-67
2021/10/13 15:33:37;;;;;;;;;;;10.80;99.90;;;;;;8395814;28;19912;-68
2021/10/13 15:37:38;;;;;;;;;;;10.60;99.90;;;;;;8395914;28;19920;-68
2021/10/13 15:41:39;;;;;;;;;;;10.50;99.90;;;;;;8386529;28;20007;-68
2021/10/13 15:45:39;;;;;;;;;;;10.40;99.90;;;;;;8375887;28;19913;-68
2021/10/13 15:49:40;;;;;;;;;;;10.20;99.90;;;;;;8372051;28;20441;-68
2021/10/13 15:53:40;;;;;;;;;;;10.00;99.90;;;;;;8371390;28;19962;-68
2021/10/13 15:57:41;;;;;;;;;;;9.80;99.90;;;;;;8366714;28;19925;-68
2021/10/13 16:01:41;;;;;;;;;;;9.70;99.90;;;;;;8387453;28;19916;-68
2021/10/13 16:05:42;;;;;;;;;;;9.70;99.90;;;;;;8394977;28;19999;-68
2021/10/13 16:09:43;;;;;;;;;;;9.70;99.90;;;;;;8395391;28;19995;-67
2021/10/13 16:13:43;;;;;;;;;;;9.70;99.90;;;;;;8394093;28;19915;-68
2021/10/13 16:17:44;;;;;;;;;;;9.50;99.90;;;;;;8379405;28;19968;-68
2021/10/13 16:21:45;;;;;;;;;;;9.30;99.90;;;;;;8360633;28;19924;-67
2021/10/13 16:25:45;;;;;;;;;;;9.10;99.90;;;;;;8369116;28;20003;-68
2021/10/13 16:29:46;;;;;;;;;;;9.10;99.90;;;;;;8361195;28;19912;-68
2021/10/13 16:33:46;;;;;;;;;;;8.90;99.90;;;;;;8362360;28;19917;-68
2021/10/13 16:37:47;;;;;;;;;;;8.90;99.90;;;;;;8360012;28;19967;-67
2021/10/13 16:41:48;;;;;;;;;;;8.70;99.90;;;;;;8385388;28;19957;-67
2021/10/13 16:45:48;;;;;;;;;;;8.60;99.90;;;;;;8388796;28;20370;-67
2021/10/13 16:49:49;;;;;;;;;;;8.60;99.90;;;;;;8392672;28;19908;-68
2021/10/13 16:53:49;;;;;;;;;;;8.50;99.90;;;;;;8393714;28;20485;-68
2021/10/13 16:57:50;;;;;;;;;;;8.30;99.90;;;;;;8383488;28;20384;-67
2021/10/13 17:01:50;;;;;;;;;;;8.30;99.90;;;;;;8393849;28;19991;-68
2021/10/13 17:05:51;;;;;;;;;;;8.40;99.90;;;;;;8392247;28;20240;-67
2021/10/13 17:09:51;;;;;;;;;;;8.30;99.90;;;;;;8392942;28;19908;-67
2021/10/13 17:13:52;;;;;;;;;;;8.20;99.90;;;;;;8393645;28;19915;-67
2021/10/13 17:17:52;;;;;;;;;;;8.20;99.90;;;;;;8392611;28;20367;-67
2021/10/13 17:21:53;;;;;;;;;;;7.90;99.90;;;;;;8393489;28;19917;-67
2021/10/13 17:25:53;;;;;;;;;;;7.80;99.90;;;;;;8393010;28;20010;-68
2021/10/13 17:29:54;;;;;;;;;;;7.80;99.90;;;;;;8392060;28;20383;-68
2021/10/13 17:33:54;;;;;;;;;;;7.50;99.90;;;;;;8392883;28;19909;-67
2021/10/13 17:37:55;;;;;;;;;;;7.30;99.90;;;;;;8392047;28;19923;-67
2021/10/13 17:41:55;;;;;;;;;;;6.90;99.90;;;;;;8390521;28;19967;-67
2021/10/13 17:45:56;;;;;;;;;;;6.60;99.90;;;;;;8391185;28;19909;-67
2021/10/13 17:49:56;;;;;;;;;;;6.70;99.90;;;;;;8392332;28;20434;-68
2021/10/13 17:53:56;;;;;;;;;;;6.90;99.90;;;;;;8392484;28;19919;-68
2021/10/13 17:57:57;;;;;;;;;;;6.70;99.90;;;;;;8392038;28;19923;-67
2021/10/13 18:01:57;;;;;;;;;;;6.30;99.90;;;;;;8382305;28;19909;-67
2021/10/13 18:05:58;;;;;;;;;;;6.20;99.90;;;;;;8357002;28;19952;-67
2021/10/13 18:09:58;;;;;;;;;;;6.30;99.90;;;;;;8358355;28;20283;-68
2021/10/13 18:13:59;;;;;;;;;;;6.00;99.90;;;;;;8358811;28;19915;-67
2021/10/13 18:17:59;;;;;;;;;;;5.90;99.90;;;;;;8366308;28;20019;-68
2021/10/13 18:22:00;;;;;;;;;;;5.80;99.90;;;;;;8392123;28;20409;-67
2021/10/13 18:26:00;;;;;;;;;;;5.60;99.90;;;;;;8391569;28;19943;-68
2021/10/13 18:30:01;;;;;;;;;;;5.60;99.90;;;;;;8391896;28;19983;-68
2021/10/13 18:34:03;;;;;;;;;;;5.50;99.90;;;;;;8391969;28;19909;-67
2021/10/13 18:38:03;;;;;;;;;;;5.60;99.90;;;;;;8390494;28;19912;-68
2021/10/13 18:42:04;;;;;;;;;;;5.20;99.90;;;;;;8390403;28;19999;-68
2021/10/13 18:46:04;;;;;;;;;;;5.10;99.90;;;;;;8379084;28;20400;-68
2021/10/13 18:50:05;;;;;;;;;;;4.90;99.90;;;;;;8388238;28;19909;-67
2021/10/13 18:54:06;;;;;;;;;;;4.90;99.90;;;;;;8395856;28;20332;-68
2021/10/13 18:58:06;;;;;;;;;;;4.90;99.90;;;;;;8378249;28;20306;-67
2021/10/13 19:02:07;;;;;;;;;;;4.70;99.90;;;;;;8368292;28;19920;-68
2021/10/13 19:06:08;;;;;;;;;;;4.60;99.90;;;;;;8379162;28;19969;-67
2021/10/13 19:10:09;;;;;;;;;;;4.50;99.90;;;;;;8374043;28;20382;-67
2021/10/13 19:14:09;;;;;;;;;;;4.70;99.90;;;;;;8377628;28;20459;-67
2021/10/13 19:18:10;;;;;;;;;;;4.70;99.90;;;;;;8375570;28;20027;-67
2021/10/13 19:22:11;;;;;;;;;;;4.80;99.90;;;;;;8370795;28;19947;-67
2021/10/13 19:26:13;;;;;;;;;;;4.50;99.90;;;;;;8377761;28;19916;-67
2021/10/13 19:30:14;;;;;;;;;;;4.50;99.90;;;;;;8366161;28;19912;-67
2021/10/13 19:34:14;;;;;;;;;;;4.40;99.90;;;;;;8386172;28;20593;-67
2021/10/13 19:38:15;;;;;;;;;;;4.50;99.90;;;;;;8374977;28;20497;-67
2021/10/13 19:42:15;;;;;;;;;;;4.20;99.90;;;;;;8370274;28;20008;-67
2021/10/13 19:46:18;;;;;;;;;;;4.10;99.90;;;;;;8373362;28;19948;-66
2021/10/13 19:50:18;;;;;;;;;;;4.00;99.90;;;;;;8374876;28;21217;-66
2021/10/13 19:54:19;;;;;;;;;;;3.90;99.90;;;;;;8361602;28;19920;-65
2021/10/13 19:58:20;;;;;;;;;;;4.20;99.90;;;;;;8380276;28;19931;-66
2021/10/13 20:02:20;;;;;;;;;;;4.20;99.90;;;;;;8380759;28;20341;-66
2021/10/13 20:06:21;;;;;;;;;;;3.90;99.90;;;;;;8356875;28;19959;-66
2021/10/13 20:10:22;;;;;;;;;;;3.90;99.90;;;;;;8362910;28;19916;-65
2021/10/13 20:14:24;;;;;;;;;;;4.20;99.90;;;;;;8367204;28;19913;-66
2021/10/13 20:18:24;;;;;;;;;;;4.00;99.90;;;;;;8374630;28;20300;-66
2021/10/13 20:22:25;;;;;;;;;;;4.00;99.90;;;;;;8376246;28;19982;-66
2021/10/13 20:26:25;;;;;;;;;;;3.70;99.90;;;;;;8355398;28;19948;-65
2021/10/13 20:30:26;;;;;;;;;;;3.70;99.90;;;;;;8354627;28;19923;-65
2021/10/13 20:34:27;;;;;;;;;;;3.80;99.90;;;;;;8357387;28;20007;-65
2021/10/13 20:38:27;;;;;;;;;;;3.80;99.90;;;;;;8380835;28;19924;-65
2021/10/13 20:42:28;;;;;;;;;;;3.50;99.90;;;;;;8388706;28;19919;-65
2021/10/13 20:46:28;;;;;;;;;;;3.30;99.90;;;;;;8388292;28;19965;-66
2021/10/13 20:50:29;;;;;;;;;;;3.30;99.90;;;;;;8366660;28;19916;-65
2021/10/13 20:54:29;;;;;;;;;;;3.40;99.90;;;;;;8390055;28;19913;-66
2021/10/13 20:58:30;;;;;;;;;;;3.10;99.90;;;;;;8392908;28;19935;-66
2021/10/13 21:02:30;;;;;;;;;;;3.20;99.90;;;;;;8393087;28;20390;-66
2021/10/13 21:06:30;;;;;;;;;;;3.30;99.90;;;;;;8391976;28;20302;-65
2021/10/13 21:10:31;;;;;;;;;;;3.40;99.90;;;;;;8368881;28;19982;-65
2021/10/13 21:14:31;;;;;;;;;;;3.40;99.90;;;;;;8385018;28;19915;-65
2021/10/13 21:18:33;;;;;;;;;;;3.40;99.90;;;;;;8376623;28;19924;-65
2021/10/13 21:22:34;;;;;;;;;;;3.40;99.90;;;;;;8392189;28;20651;-65
2021/10/13 21:26:35;;;;;;;;;;;3.50;99.90;;;;;;8391746;28;20294;-65
2021/10/13 21:30:36;;;;;;;;;;;3.60;99.90;;;;;;8392282;28;19916;-65
2021/10/13 21:34:36;;;;;;;;;;;3.60;99.90;;;;;;8391777;28;20470;-65
2021/10/13 21:38:40;;;;;;;;;;;3.60;99.90;;;;;;8391845;28;19916;-66
2021/10/13 21:42:40;;;;;;;;;;;4.10;99.90;;;;;;8390480;28;19909;-65
2021/10/13 21:46:40;;;;;;;;;;;3.90;99.90;;;;;;8391609;28;19912;-66
2021/10/13 21:50:41;;;;;;;;;;;3.90;99.90;;;;;;8390483;28;20374;-65
2021/10/13 21:54:41;;;;;;;;;;;3.90;99.90;;;;;;8391149;28;20390;-65
2021/10/13 21:58:42;;;;;;;;;;;4.00;99.90;;;;;;8390174;28;19920;-66
2021/10/13 22:02:43;;;;;;;;;;;3.80;99.90;;;;;;8390405;28;19917;-65
2021/10/13 22:06:43;;;;;;;;;;;3.80;99.90;;;;;;8388814;28;19932;-65
2021/10/13 22:10:44;;;;;;;;;;;3.70;99.90;;;;;;8390182;28;20007;-65
2021/10/13 22:14:44;;;;;;;;;;;3.90;99.90;;;;;;8388304;28;19966;-65
2021/10/13 22:18:45;;;;;;;;;;;3.70;99.90;;;;;;8391005;28;19916;-66
2021/10/13 22:22:45;;;;;;;;;;;3.70;99.90;;;;;;8391199;28;19962;-66
2021/10/13 22:26:46;;;;;;;;;;;3.50;99.90;;;;;;8391274;28;19927;-65
2021/10/13 22:30:46;;;;;;;;;;;3.50;99.90;;;;;;8398144;28;19970;-65
2021/10/13 22:34:47;;;;;;;;;;;3.50;99.90;;;;;;8397454;28;20323;-65
2021/10/13 22:38:47;;;;;;;;;;;3.20;99.90;;;;;;8397270;28;20366;-65
2021/10/13 22:42:48;;;;;;;;;;;3.00;99.90;;;;;;8397350;28;19912;-65
2021/10/13 22:46:48;;;;;;;;;;;2.80;99.90;;;;;;8395867;28;20532;-65
2021/10/13 22:50:49;;;;;;;;;;;3.00;99.90;;;;;;8396358;28;20278;-65
2021/10/13 22:54:52;;;;;;;;;;;3.00;99.90;;;;;;8396780;28;20448;-65
2021/10/13 22:58:53;;;;;;;;;;;3.00;99.90;;;;;;8397005;28;19952;-65
2021/10/13 23:02:53;;;;;;;;;;;3.00;99.90;;;;;;8396811;28;19915;-66
2021/10/13 23:06:55;;;;;;;;;;;2.90;99.90;;;;;;8396666;28;20436;-65
2021/10/13 23:10:55;;;;;;;;;;;2.90;99.90;;;;;;8395396;28;19908;-65
2021/10/13 23:14:56;;;;;;;;;;;2.80;99.90;;;;;;8395057;28;19915;-65
2021/10/13 23:18:57;;;;;;;;;;;2.50;99.90;;;;;;8394777;28;19912;-65
2021/10/13 23:22:57;;;;;;;;;;;2.50;99.90;;;;;;8396442;28;19925;-65
2021/10/13 23:26:59;;;;;;;;;;;2.40;99.90;;;;;;8394881;28;19916;-65
2021/10/13 23:30:59;;;;;;;;;;;2.50;99.90;;;;;;8395096;28;19909;-65
2021/10/13 23:34:59;;;;;;;;;;;2.50;99.90;;;;;;8396216;28;20366;-65
2021/10/13 23:39:00;;;;;;;;;;;2.70;99.90;;;;;;8395736;28;19912;-65